YBX weather

Lourdes de Blanc Sablon Airport
Lourdes-De-Blanc-Sablon, Quebec, Canada

Public forecast

Using degrees Celsius for public forecast. Weather courtesy of forecast.io.

METAR (pilot weather report)

Retrieved 2019/09/16 03:27 UTC (0 seconds ago):

CYBX 160327Z 16002KT 1/4SM -RA FG VV002 09/09 A2974 RMK FG8 SLP073

TAF (pilot weather forecast)

Retrieved 2019/09/16 02:00 UTC (1 hour ago):

TAF CYBX 160138Z 1602/1614 25005KT 3/4SM -DZ BR OVC002 TEMPO 1602/1613 3SM -RA BR OVC005 FM161300 36010KT P6SM OVC010 TEMPO 1613/1614 2SM BR OVC005 RMK NXT FCST BY 160800Z